ICT,Max TemperatureF,Mean TemperatureF,Min TemperatureF,Max Dew PointF,MeanDew PointF,Min DewpointF,Max Humidity, Mean Humidity, Min Humidity, Max Sea Level PressureIn, Mean Sea Level PressureIn, Min Sea Level PressureIn, Max VisibilityMiles, Mean VisibilityMiles, Min VisibilityMiles, Max Wind SpeedMPH, Mean Wind SpeedMPH, Max Gust SpeedMPH,PrecipitationIn, CloudCover, Events, WindDirDegrees
2013-8-1,89,83,77,77,75,73,94,76,59,29.68,29.63,29.53,6,6,4,17,7,,0.00,5,Rain,259
2013-8-2,89,84,80,77,75,73,84,76,62,29.71,29.63,29.53,6,6,4,15,7,,0.00,5,Rain,248
2013-8-3,86,82,77,77,75,73,94,83,70,29.80,29.70,29.62,6,6,1,17,4,,0.00,6,Rain,166
2013-8-4,87,82,77,77,75,73,94,81,62,29.83,29.77,29.71,6,6,4,18,1,,0.00,4,Rain,271
2013-8-5,89,84,78,79,75,73,89,73,59,29.83,29.76,29.68,6,6,6,14,4,,0.00,3,,306
2013-8-6,89,84,78,77,76,73,89,78,66,29.74,29.70,29.62,6,6,0,16,5,,0.00,3,Rain-Thunderstorm,279
2013-8-7,89,82,75,77,75,72,94,82,62,29.74,29.68,29.59,6,5,1,14,4,,0.00,6,Rain-Thunderstorm,197
2013-8-8,87,82,77,79,76,73,94,86,66,29.77,29.72,29.65,6,6,4,8,1,,0.00,5,Rain-Thunderstorm,86
2013-8-9,87,82,77,77,75,73,94,81,66,29.80,29.74,29.68,6,6,6,13,3,,0.00,5,Rain,244
2013-8-10,89,83,77,77,75,73,94,77,59,29.83,29.74,29.65,6,6,5,23,2,,0.00,4,Rain,219
2013-8-11,89,84,78,77,75,73,94,79,59,29.80,29.73,29.65,6,6,6,14,2,,0.00,4,Rain,305
2013-8-12,87,82,77,79,76,73,94,84,66,29.74,29.68,29.62,6,6,4,12,5,24,0.00,5,Rain,292
2013-8-13,84,80,75,77,75,73,94,89,79,29.74,29.67,29.59,6,6,4,12,4,,0.00,6,Rain,249
2013-8-14,86,82,77,75,74,73,89,77,66,29.77,29.70,29.62,6,6,5,13,5,20,0.00,4,Rain,247
2013-8-15,86,82,77,81,75,73,100,81,70,29.80,29.76,29.71,6,6,2,14,3,23,0.00,4,Rain,232
2013-8-16,89,84,78,77,75,73,89,73,59,29.80,29.73,29.65,6,6,3,15,4,18,0.00,3,Rain-Thunderstorm,262
2013-8-17,91,86,80,77,75,73,84,70,55,29.74,29.69,29.62,6,6,6,17,8,,0.00,3,,265
2013-8-18,91,86,80,75,74,72,84,70,52,29.74,29.69,29.62,6,6,6,14,8,22,0.00,3,,256
2013-8-19,91,86,80,75,74,72,84,65,55,29.74,29.67,29.59,6,6,6,20,7,16,0.00,2,,266
2013-8-20,89,84,80,75,72,70,79,67,55,29.74,29.67,29.62,6,6,6,17,7,17,0.00,3,,252
2013-8-21,87,82,77,77,74,73,94,77,62,29.71,29.66,29.59,6,6,6,14,8,,0.00,5,Rain,246
2013-8-22,86,82,77,77,76,73,94,83,70,29.71,29.67,29.59,6,6,1,15,7,30,0.00,4,Rain,239
2013-8-23,87,82,77,75,74,72,94,74,62,29.74,29.68,29.59,6,6,5,14,5,,0.00,4,Rain,241
2013-8-24,91,86,80,77,75,73,84,74,55,29.71,29.67,29.62,6,6,6,17,7,,0.00,3,,243
2013-8-25,91,84,78,77,75,72,89,76,52,29.77,29.70,29.62,6,6,6,14,5,,0.00,4,Rain,251
2013-8-26,89,84,78,77,76,73,89,77,59,29.77,29.70,29.62,6,6,5,9,3,,0.00,4,Rain,272
2013-8-27,86,82,77,79,76,73,100,82,70,29.80,29.74,29.68,6,6,1,20,6,,0.00,4,Rain,282
2013-8-28,89,84,78,77,75,73,94,80,62,29.80,29.74,29.65,6,6,3,18,6,,0.00,4,Rain-Thunderstorm,276
2013-8-29,89,84,78,77,76,73,94,82,66,29.80,29.75,29.68,6,6,5,17,4,,0.00,5,Rain,203
2013-8-30,87,82,78,77,75,73,94,75,62,29.80,29.73,29.65,6,6,6,12,3,,0.00,3,,196
2013-8-31,89,83,77,77,75,72,89,75,58,29.83,29.75,29.68,6,6,6,12,4,25,0.00,2,,199